createdAt,value
2022-10-02T00:02:02.202Z,8.82
2022-10-02T00:07:09.643Z,7.35
2022-10-02T00:17:29.573Z,6.40
2022-10-02T00:22:58.813Z,6.50
2022-10-02T00:28:14.141Z,6.50
2022-10-02T00:33:41.905Z,7.97
2022-10-02T00:39:25.186Z,8.27
2022-10-02T00:44:41.926Z,10.70
2022-10-02T00:50:11.473Z,10.60
2022-10-02T00:55:39.406Z,9.00
2022-10-02T01:00:48.557Z,8.65
2022-10-02T01:05:50.552Z,8.95
2022-10-02T01:10:52.388Z,11.43
2022-10-02T01:15:59.161Z,13.82
2022-10-02T01:21:29.964Z,15.27
2022-10-02T01:26:31.928Z,13.57
2022-10-02T01:31:35.827Z,13.90
2022-10-02T01:36:38.105Z,14.18
2022-10-02T01:41:43.826Z,13.70
2022-10-02T01:46:55.986Z,15.43
2022-10-02T01:52:10.736Z,15.65
2022-10-02T01:57:49.056Z,17.23
2022-10-02T02:08:31.252Z,16.15
2022-10-02T02:14:16.665Z,15.18
2022-10-02T02:19:27.461Z,19.27
2022-10-02T02:24:35.989Z,17.23
2022-10-02T02:29:38.696Z,25.50
2022-10-02T02:34:49.052Z,26.42
2022-10-02T02:39:55.585Z,27.13
2022-10-02T02:45:13.739Z,18.17
2022-10-02T02:50:21.298Z,21.83
2022-10-02T02:55:31.442Z,28.38
2022-10-02T03:00:33.290Z,22.63
2022-10-02T03:05:39.081Z,20.85
2022-10-02T03:10:43.489Z,25.65
2022-10-02T03:15:58.878Z,23.17
2022-10-02T03:21:13.194Z,20.38
2022-10-02T03:26:41.023Z,28.77
2022-10-02T03:31:44.209Z,20.17
2022-10-02T03:36:47.515Z,27.05
2022-10-02T03:41:49.183Z,27.83
2022-10-02T03:46:50.893Z,34.85
2022-10-02T03:51:52.553Z,24.90
2022-10-02T03:56:54.196Z,27.83
2022-10-02T04:01:58.778Z,22.85
2022-10-02T04:07:05.102Z,22.95
2022-10-02T04:12:15.124Z,24.55
2022-10-02T04:17:26.305Z,24.00
2022-10-02T04:22:34.508Z,22.52
2022-10-02T04:27:53.208Z,27.70
2022-10-02T04:33:05.830Z,24.00
2022-10-02T04:38:29.363Z,39.38
2022-10-02T04:43:43.202Z,26.08
2022-10-02T04:49:22.654Z,24.17
2022-10-02T04:55:03.266Z,25.88
2022-10-02T05:00:13.602Z,25.42
2022-10-02T05:05:28.146Z,22.88
2022-10-02T05:11:00.797Z,17.65
2022-10-02T05:16:30.691Z,19.98
2022-10-02T05:21:32.351Z,15.85
2022-10-02T05:26:43.088Z,15.20
2022-10-02T05:32:08.454Z,18.95
2022-10-02T05:37:39.235Z,15.30
2022-10-02T05:42:46.007Z,24.98
2022-10-02T05:47:49.501Z,19.73
2022-10-02T05:52:59.230Z,14.85
2022-10-02T05:58:12.476Z,16.60
2022-10-02T06:03:48.238Z,17.83
2022-10-02T06:08:58.395Z,18.50
2022-10-02T06:14:10.376Z,17.98
2022-10-02T06:19:17.109Z,16.25
2022-10-02T06:24:27.354Z,17.17
2022-10-02T06:29:37.043Z,20.30
2022-10-02T06:34:38.737Z,19.90
2022-10-02T06:40:01.262Z,12.25
2022-10-02T06:45:23.259Z,18.45
2022-10-02T06:50:50.536Z,16.20
2022-10-02T06:56:20.213Z,21.03
2022-10-02T07:01:46.744Z,14.07
2022-10-02T07:06:57.373Z,24.40
2022-10-02T07:12:08.258Z,20.90
2022-10-02T07:17:35.906Z,20.30
2022-10-02T07:22:59.480Z,22.35
2022-10-02T07:28:22.881Z,26.83
2022-10-02T07:33:42.437Z,12.70
2022-10-02T07:38:47.001Z,22.48
2022-10-02T07:44:03.560Z,20.00
2022-10-02T07:49:39.756Z,14.95
2022-10-02T07:54:49.802Z,16.23
2022-10-02T07:59:59.927Z,15.13
2022-10-02T08:05:08.016Z,17.35
2022-10-02T08:10:13.166Z,17.77
2022-10-02T08:15:18.782Z,11.02
2022-10-02T08:20:30.283Z,15.80
2022-10-02T08:25:38.974Z,15.07
2022-10-02T08:30:40.596Z,14.23
2022-10-02T08:36:07.928Z,14.75
2022-10-02T08:41:24.570Z,12.80
2022-10-02T08:46:40.948Z,9.77
2022-10-02T08:52:02.933Z,8.48
2022-10-02T08:57:40.116Z,11.45
2022-10-02T09:03:19.393Z,7.67
2022-10-02T09:08:46.421Z,11.45
2022-10-02T09:13:50.850Z,11.30
2022-10-02T09:18:59.992Z,8.90
2022-10-02T09:24:24.651Z,15.25
2022-10-02T09:29:50.038Z,11.57
2022-10-02T09:34:54.653Z,10.32
2022-10-02T09:40:26.707Z,11.38
2022-10-02T09:46:06.697Z,10.23
2022-10-02T09:51:14.603Z,14.73
2022-10-02T09:56:22.745Z,17.23
2022-10-02T10:02:19.027Z,10.48
2022-10-02T10:07:52.566Z,10.15
2022-10-02T10:13:21.226Z,11.38
2022-10-02T10:19:14.636Z,13.40
2022-10-02T10:24:24.917Z,9.38
2022-10-02T10:29:31.410Z,9.55
2022-10-02T10:35:09.663Z,16.08
2022-10-02T10:40:36.605Z,8.43
2022-10-02T10:45:47.507Z,10.80
2022-10-02T10:51:14.102Z,10.55
2022-10-02T10:56:26.018Z,6.77
2022-10-02T11:02:00.525Z,7.57
2022-10-02T11:07:11.200Z,6.97
2022-10-02T11:12:28.104Z,5.18
2022-10-02T11:17:51.074Z,6.63
2022-10-02T11:23:21.087Z,5.15
2022-10-02T11:28:46.790Z,6.57
2022-10-02T11:34:21.467Z,10.35
2022-10-02T11:39:41.817Z,6.85
2022-10-02T11:45:32.622Z,6.05
2022-10-02T11:50:37.148Z,5.40
2022-10-02T11:55:59.009Z,3.10
2022-10-02T12:01:18.920Z,6.03
2022-10-02T12:06:46.871Z,4.32
2022-10-02T12:11:57.005Z,3.42
2022-10-02T12:17:18.394Z,6.72
2022-10-02T12:23:02.468Z,3.75
2022-10-02T12:28:27.341Z,7.13
2022-10-02T12:33:54.309Z,4.30
2022-10-02T12:39:07.793Z,6.50
2022-10-02T12:44:43.220Z,4.80
2022-10-02T12:50:07.052Z,5.07
2022-10-02T12:55:52.379Z,5.20
2022-10-02T13:01:12.814Z,4.75
2022-10-02T13:06:56.397Z,4.07
2022-10-02T13:12:20.336Z,3.60
2022-10-02T13:17:51.972Z,5.15
2022-10-02T13:23:02.766Z,3.13
2022-10-02T13:28:37.724Z,4.70
2022-10-02T13:33:54.517Z,3.22
2022-10-02T13:39:14.382Z,4.43
2022-10-02T13:44:37.464Z,2.92
2022-10-02T13:49:57.932Z,3.75
2022-10-02T13:55:24.684Z,4.10
2022-10-02T14:00:38.722Z,1.97
2022-10-02T14:05:58.184Z,4.20
2022-10-02T14:11:18.462Z,4.43
2022-10-02T14:16:41.385Z,3.25
2022-10-02T14:22:36.607Z,3.97
2022-10-02T14:27:56.749Z,7.10
2022-10-02T14:33:40.080Z,4.97
2022-10-02T14:38:51.824Z,6.15
2022-10-02T14:44:11.181Z,5.15
2022-10-02T14:49:31.251Z,7.75
2022-10-02T14:54:35.969Z,6.20
2022-10-02T14:59:59.270Z,5.00
2022-10-02T15:05:19.846Z,7.05
2022-10-02T15:10:34.562Z,5.70
2022-10-02T15:16:10.952Z,4.88
2022-10-02T15:21:29.021Z,5.53
2022-10-02T15:26:46.317Z,5.50
2022-10-02T15:32:06.861Z,9.68
2022-10-02T15:37:38.143Z,8.77
2022-10-02T15:42:59.076Z,6.10
2022-10-02T15:48:08.451Z,9.32
2022-10-02T15:53:25.536Z,11.07
2022-10-02T15:58:49.385Z,5.72
2022-10-02T16:03:54.676Z,11.75
2022-10-02T16:09:41.633Z,10.88
2022-10-02T16:15:02.758Z,6.25
2022-10-02T16:20:16.520Z,11.57
2022-10-02T16:25:52.468Z,12.23
2022-10-02T16:31:13.619Z,6.85
2022-10-02T16:36:41.183Z,12.57
2022-10-02T16:42:01.843Z,8.07
2022-10-02T16:47:16.467Z,12.55
2022-10-02T16:52:49.826Z,8.80
2022-10-02T16:58:16.425Z,8.50
2022-10-02T17:03:58.315Z,10.05
2022-10-02T17:09:17.127Z,11.65
2022-10-02T17:14:49.110Z,9.10
2022-10-02T17:20:01.917Z,10.85
2022-10-02T17:25:30.028Z,8.35
2022-10-02T17:31:14.939Z,10.63
2022-10-02T17:36:56.152Z,5.95
2022-10-02T17:42:28.277Z,4.07
2022-10-02T17:47:53.178Z,2.92
2022-10-02T17:53:51.561Z,5.32
2022-10-02T17:59:13.380Z,5.93
2022-10-02T18:04:14.964Z,9.18
2022-10-02T18:09:34.411Z,6.65
2022-10-02T18:15:00.183Z,11.05
2022-10-02T18:20:13.834Z,8.98
2022-10-02T18:25:30.138Z,9.75
2022-10-02T18:30:48.227Z,8.38
2022-10-02T18:36:02.246Z,11.15
2022-10-02T18:41:19.760Z,10.63
2022-10-02T18:46:56.353Z,6.28
2022-10-02T18:52:10.169Z,10.15
2022-10-02T18:57:45.754Z,5.80
2022-10-02T19:03:05.983Z,10.73
2022-10-02T19:08:18.621Z,7.80
2022-10-02T19:13:30.093Z,7.60
2022-10-02T19:18:33.184Z,8.30
2022-10-02T19:23:49.386Z,10.07
2022-10-02T19:28:55.593Z,6.03
2022-10-02T19:34:02.316Z,9.95
2022-10-02T19:39:17.795Z,8.80
2022-10-02T19:44:31.129Z,9.25
2022-10-02T19:49:39.268Z,8.63
2022-10-02T19:54:41.376Z,8.60
2022-10-02T19:59:48.425Z,8.27
2022-10-02T20:04:52.414Z,7.00
2022-10-02T20:10:02.953Z,6.55
2022-10-02T20:15:39.723Z,9.38
2022-10-02T20:20:45.286Z,10.40
2022-10-02T20:25:53.132Z,13.48
2022-10-02T20:31:06.919Z,11.85
2022-10-02T20:36:16.968Z,10.20
2022-10-02T20:41:29.068Z,9.32
2022-10-02T20:46:33.882Z,10.70
2022-10-02T20:52:24.329Z,9.63
2022-10-02T20:57:59.145Z,8.20
2022-10-02T21:03:36.685Z,8.52
2022-10-02T21:08:57.171Z,8.10
2022-10-02T21:14:29.433Z,8.60
2022-10-02T21:19:52.208Z,10.75
2022-10-02T21:25:18.007Z,15.93
2022-10-02T21:30:20.571Z,6.88
2022-10-02T21:36:00.422Z,7.72
2022-10-02T21:41:23.673Z,10.52
2022-10-02T21:46:57.754Z,9.55
2022-10-02T21:52:31.621Z,9.48
2022-10-02T21:57:51.902Z,8.52
2022-10-02T22:03:25.351Z,14.90
2022-10-02T22:08:33.154Z,15.30
2022-10-02T22:13:37.758Z,10.98
2022-10-02T22:18:54.257Z,10.93
2022-10-02T22:23:58.718Z,11.32
2022-10-02T22:29:24.612Z,11.93
2022-10-02T22:34:43.471Z,12.60
2022-10-02T22:40:08.393Z,12.73
2022-10-02T22:45:41.282Z,12.52
2022-10-02T22:50:58.070Z,11.43
2022-10-02T22:55:59.942Z,7.60
2022-10-02T23:01:23.431Z,9.77
2022-10-02T23:06:32.980Z,7.97
2022-10-02T23:12:00.170Z,10.90
2022-10-02T23:17:15.160Z,11.37
2022-10-02T23:22:23.600Z,12.98
2022-10-02T23:27:34.139Z,10.75
2022-10-02T23:33:02.787Z,12.52
2022-10-02T23:38:45.573Z,6.70
2022-10-02T23:44:17.084Z,9.98
2022-10-02T23:49:23.957Z,8.43
2022-10-02T23:54:41.407Z,10.93
